Time;durP1;ratioP1;P1;durP2;ratioP2;P2;SDS_P1;SDS_P2;PMS_P1;PMS_P2;Temp;Humidity;BMP_temperature;BMP_pressure;BME280_temperature;BME280_humidity;BME280_pressure;Samples;Min_cycle;Max_cycle;Signal;HPM_P1;HPM_P2
2023/06/27 00:01:20;;;;;;;6.13;5.83;;;21.50;12.00;;;;;;5012671;28;20474;-77
2023/06/27 00:03:48;;;;;;;6.30;6.00;;;21.50;11.90;;;;;;5013272;28;20284;-77
2023/06/27 00:06:19;;;;;;;6.43;5.97;;;21.50;11.90;;;;;;5013129;28;20655;-77
2023/06/27 00:08:46;;;;;;;6.43;6.00;;;21.50;11.80;;;;;;5012092;28;20466;-78
2023/06/27 00:11:11;;;;;;;6.80;6.40;;;21.50;12.00;;;;;;5011948;28;20423;-78
2023/06/27 00:13:40;;;;;;;6.90;6.53;;;21.50;11.90;;;;;;5011942;28;20444;-78
2023/06/27 00:16:09;;;;;;;6.57;6.27;;;21.50;12.00;;;;;;5010112;28;20452;-78
2023/06/27 00:18:35;;;;;;;7.10;6.70;;;21.40;12.00;;;;;;5013167;28;20415;-78
2023/06/27 00:21:00;;;;;;;6.73;6.30;;;21.60;11.80;;;;;;5012840;28;20405;-77
2023/06/27 00:23:33;;;;;;;7.50;6.90;;;21.70;11.60;;;;;;5011042;28;20247;-77
2023/06/27 00:26:02;;;;;;;6.70;6.30;;;21.70;11.60;;;;;;5012716;28;20187;-77
2023/06/27 00:28:28;;;;;;;6.67;6.10;;;21.60;11.70;;;;;;5012369;28;20442;-78
2023/06/27 00:30:54;;;;;;;6.67;6.27;;;21.60;11.80;;;;;;5011490;28;20463;-77
2023/06/27 00:33:19;;;;;;;6.97;6.37;;;21.70;11.50;;;;;;5010414;28;20938;-77
2023/06/27 00:35:45;;;;;;;6.83;6.30;;;21.80;11.40;;;;;;5011515;28;20231;-77
2023/06/27 00:38:11;;;;;;;6.80;6.40;;;21.80;11.60;;;;;;5011069;28;20173;-77
2023/06/27 00:40:37;;;;;;;6.70;6.10;;;21.80;11.60;;;;;;5009859;28;20260;-77
2023/06/27 00:43:02;;;;;;;7.03;6.40;;;21.90;11.50;;;;;;5010588;28;20535;-77
2023/06/27 00:45:28;;;;;;;7.27;6.80;;;21.90;11.50;;;;;;5011851;28;20181;-76
2023/06/27 00:47:53;;;;;;;6.47;6.07;;;22.00;11.30;;;;;;5011212;28;20274;-77
2023/06/27 00:50:24;;;;;;;6.97;6.53;;;22.00;11.20;;;;;;5013292;28;20196;-76
2023/06/27 00:52:51;;;;;;;7.70;6.70;;;22.00;11.30;;;;;;5012826;28;20280;-76
2023/06/27 00:55:17;;;;;;;6.80;6.07;;;22.00;11.40;;;;;;5012913;28;20518;-77
2023/06/27 00:57:46;;;;;;;6.40;6.00;;;22.00;11.40;;;;;;5013147;28;20940;-77
2023/06/27 01:00:13;;;;;;;6.27;5.87;;;22.00;11.30;;;;;;5012353;28;20416;-76
2023/06/27 01:02:38;;;;;;;6.73;6.30;;;21.90;11.40;;;;;;5012958;28;20603;-77
2023/06/27 01:05:05;;;;;;;6.63;6.10;;;21.90;11.50;;;;;;5013072;28;20977;-77
2023/06/27 01:07:43;;;;;;;6.50;6.00;;;21.90;11.50;;;;;;5012777;28;20252;-77
2023/06/27 01:10:13;;;;;;;6.27;5.87;;;21.90;11.60;;;;;;5012839;28;20404;-78
2023/06/27 01:12:48;;;;;;;6.40;5.80;;;21.90;11.60;;;;;;5010408;28;20962;-77
2023/06/27 01:15:13;;;;;;;6.13;5.77;;;21.90;11.70;;;;;;5012642;28;20458;-77
2023/06/27 01:17:40;;;;;;;6.13;5.83;;;21.90;11.70;;;;;;5012474;28;20914;-78
2023/06/27 01:20:07;;;;;;;6.40;6.00;;;21.90;11.70;;;;;;5013270;28;20170;-78
2023/06/27 01:22:37;;;;;;;7.07;6.63;;;21.90;11.70;;;;;;5012236;28;20427;-77
2023/06/27 01:25:06;;;;;;;7.10;6.60;;;21.90;12.30;;;;;;5011519;28;20922;-77
2023/06/27 01:27:33;;;;;;;6.47;6.00;;;21.80;11.80;;;;;;5012655;28;20466;-77
2023/06/27 01:29:58;;;;;;;6.53;6.23;;;21.80;12.20;;;;;;5016721;28;20829;-77
2023/06/27 01:32:34;;;;;;;7.00;6.40;;;21.80;12.00;;;;;;5021732;28;20431;-77
2023/06/27 01:35:25;;;;;;;6.70;6.23;;;21.80;12.00;;;;;;5023414;28;20237;-77
2023/06/27 01:37:55;;;;;;;8.73;7.23;;;21.80;11.90;;;;;;5026958;28;20405;-76
2023/06/27 01:40:23;;;;;;;6.63;6.30;;;21.80;12.00;;;;;;5032995;28;20416;-77
2023/06/27 01:42:57;;;;;;;6.60;6.20;;;21.70;12.00;;;;;;5028024;28;20529;-77
2023/06/27 01:45:23;;;;;;;6.60;6.20;;;21.70;12.00;;;;;;5031384;28;20409;-77
2023/06/27 01:47:49;;;;;;;7.00;6.53;;;21.70;12.20;;;;;;5022448;28;20423;-77
2023/06/27 01:50:15;;;;;;;6.37;5.87;;;21.70;12.30;;;;;;5017948;28;20774;-77
2023/06/27 01:52:41;;;;;;;6.30;5.90;;;21.70;12.40;;;;;;5015952;28;20424;-77
2023/06/27 01:55:07;;;;;;;6.83;6.33;;;21.70;12.20;;;;;;5016395;28;20187;-77
2023/06/27 01:57:33;;;;;;;6.47;6.17;;;21.70;12.30;;;;;;5016068;28;20961;-77
2023/06/27 01:59:59;;;;;;;6.83;6.40;;;21.70;12.40;;;;;;5016131;28;20400;-78
2023/06/27 02:02:24;;;;;;;6.30;5.90;;;21.70;12.60;;;;;;5015081;28;20197;-77
2023/06/27 02:04:50;;;;;;;7.27;6.73;;;21.70;12.20;;;;;;5015552;28;20464;-77
2023/06/27 02:07:15;;;;;;;6.67;6.27;;;21.70;12.20;;;;;;5014627;28;20181;-77
2023/06/27 02:09:41;;;;;;;6.90;6.50;;;21.70;12.20;;;;;;5016622;28;20204;-77
2023/06/27 02:12:09;;;;;;;7.00;6.50;;;21.70;12.30;;;;;;5015801;28;20581;-77
2023/06/27 02:14:34;;;;;;;6.53;6.03;;;21.60;12.40;;;;;;5015273;28;20177;-77
2023/06/27 02:17:00;;;;;;;7.70;7.20;;;21.50;12.50;;;;;;5016138;28;20509;-77
2023/06/27 02:19:25;;;;;;;7.50;6.20;;;21.50;12.50;;;;;;5019477;28;20573;-77
2023/06/27 02:21:51;;;;;;;7.50;7.00;;;21.50;12.70;;;;;;5015875;28;20194;-78
2023/06/27 02:24:17;;;;;;;7.20;6.90;;;21.40;12.80;;;;;;5016126;28;20181;-78
2023/06/27 02:26:43;;;;;;;7.40;6.80;;;21.40;13.00;;;;;;5015716;28;20177;-77
2023/06/27 02:29:09;;;;;;;6.47;6.07;;;21.40;12.80;;;;;;5015769;28;20170;-76
2023/06/27 02:31:34;;;;;;;7.20;6.70;;;21.40;12.90;;;;;;5014738;28;20412;-76
2023/06/27 02:34:01;;;;;;;6.97;6.50;;;21.40;12.80;;;;;;5015552;28;20240;-78
2023/06/27 02:36:27;;;;;;;6.13;5.80;;;21.40;13.10;;;;;;5014056;28;20229;-77
2023/06/27 02:38:56;;;;;;;6.87;6.47;;;21.30;13.40;;;;;;5014957;28;20411;-77
2023/06/27 02:41:24;;;;;;;6.70;6.30;;;21.40;12.90;;;;;;5013529;28;20420;-77
2023/06/27 02:43:50;;;;;;;7.10;6.47;;;21.40;12.90;;;;;;5015025;28;20433;-77
2023/06/27 02:46:16;;;;;;;7.00;6.60;;;21.30;13.00;;;;;;5015024;28;20427;-77
2023/06/27 02:48:42;;;;;;;7.00;6.70;;;21.30;13.10;;;;;;5015339;28;20644;-77
2023/06/27 02:51:07;;;;;;;6.57;6.13;;;21.30;13.10;;;;;;5014478;28;20185;-77
2023/06/27 02:53:33;;;;;;;6.90;6.50;;;21.30;13.10;;;;;;5018295;28;20949;-78
2023/06/27 02:56:02;;;;;;;7.33;6.50;;;21.30;13.20;;;;;;5019993;28;20590;-79
2023/06/27 02:58:29;;;;;;;7.23;6.73;;;21.20;13.60;;;;;;5019042;28;20177;-77
2023/06/27 03:00:55;;;;;;;7.10;6.60;;;21.20;13.60;;;;;;5018203;28;20511;-78
2023/06/27 03:03:20;;;;;;;6.33;6.03;;;21.20;13.20;;;;;;5018193;28;20471;-77
2023/06/27 03:05:46;;;;;;;6.60;6.20;;;21.20;13.40;;;;;;5020045;28;20192;-78
2023/06/27 03:08:11;;;;;;;6.53;6.23;;;21.30;13.30;;;;;;5015487;28;20204;-77
2023/06/27 03:10:37;;;;;;;7.30;6.90;;;21.20;13.30;;;;;;5014270;28;20216;-77
2023/06/27 03:13:02;;;;;;;7.00;6.60;;;21.20;13.20;;;;;;5013368;28;20327;-77
2023/06/27 03:15:28;;;;;;;7.37;6.87;;;21.10;13.70;;;;;;5014016;28;20225;-76
2023/06/27 03:17:54;;;;;;;7.13;6.80;;;21.10;13.40;;;;;;5013988;28;20316;-76
2023/06/27 03:20:20;;;;;;;7.87;7.40;;;21.00;13.50;;;;;;5013946;28;20255;-77
2023/06/27 03:22:46;;;;;;;7.30;6.80;;;21.00;13.40;;;;;;5012191;28;20276;-77
2023/06/27 03:25:12;;;;;;;7.33;7.03;;;21.00;13.50;;;;;;5012442;28;20575;-77
2023/06/27 03:27:37;;;;;;;7.07;6.70;;;21.00;13.70;;;;;;5013866;28;20173;-77
2023/06/27 03:30:04;;;;;;;7.17;6.70;;;21.00;13.40;;;;;;5012652;28;20260;-77
2023/06/27 03:32:30;;;;;;;7.10;6.80;;;21.00;13.40;;;;;;5020750;28;20198;-79
2023/06/27 03:34:55;;;;;;;6.87;6.50;;;21.00;13.60;;;;;;5022266;28;20423;-77
2023/06/27 03:37:21;;;;;;;6.87;6.40;;;21.00;13.70;;;;;;5022211;28;20692;-79
2023/06/27 03:39:47;;;;;;;7.87;7.23;;;21.00;13.70;;;;;;5023834;28;20408;-79
2023/06/27 03:42:12;;;;;;;7.80;7.03;;;20.90;13.70;;;;;;5019068;28;20204;-79
2023/06/27 03:44:38;;;;;;;6.63;6.20;;;20.80;13.60;;;;;;5020496;28;20177;-78
2023/06/27 03:47:04;;;;;;;6.40;6.00;;;20.80;13.60;;;;;;5020066;28;20177;-79
2023/06/27 03:49:30;;;;;;;6.70;6.20;;;20.80;13.60;;;;;;5020278;28;20656;-78
2023/06/27 03:51:56;;;;;;;6.50;6.20;;;20.80;13.60;;;;;;5019351;28;20436;-79
2023/06/27 03:54:21;;;;;;;6.33;6.03;;;20.80;13.60;;;;;;5018140;28;20212;-78
2023/06/27 03:56:47;;;;;;;6.10;5.80;;;20.70;13.60;;;;;;5018207;28;20463;-78
2023/06/27 03:59:13;;;;;;;7.07;6.57;;;20.80;13.60;;;;;;5020286;28;20177;-78
2023/06/27 04:01:41;;;;;;;6.93;6.63;;;20.70;13.50;;;;;;5018143;28;21052;-79
2023/06/27 04:04:09;;;;;;;7.60;6.90;;;20.70;13.60;;;;;;5019077;28;20162;-79
2023/06/27 04:06:35;;;;;;;7.67;7.27;;;20.80;13.60;;;;;;5016811;28;20794;-78
2023/06/27 04:09:02;;;;;;;7.90;7.27;;;20.80;13.60;;;;;;5018162;28;20424;-79
2023/06/27 04:11:28;;;;;;;7.70;6.90;;;20.80;13.40;;;;;;5016703;28;20245;-74
2023/06/27 04:13:56;;;;;;;8.30;7.70;;;20.70;13.50;;;;;;5012082;28;20456;-77
2023/06/27 04:16:22;;;;;;;8.77;8.17;;;20.70;13.50;;;;;;5013504;28;20588;-76
2023/06/27 04:18:47;;;;;;;7.97;7.47;;;20.70;13.50;;;;;;5013379;28;20431;-77
2023/06/27 04:21:13;;;;;;;7.63;7.20;;;20.60;13.50;;;;;;5013869;28;20169;-76
2023/06/27 04:23:38;;;;;;;8.23;7.50;;;20.60;13.50;;;;;;5013237;28;20632;-76
2023/06/27 04:26:07;;;;;;;7.50;6.90;;;20.70;13.60;;;;;;5011905;28;20178;-75
2023/06/27 04:28:33;;;;;;;7.50;6.90;;;20.70;13.50;;;;;;5011631;28;20188;-76
2023/06/27 04:31:00;;;;;;;7.77;7.07;;;20.70;13.50;;;;;;5012743;28;20408;-76
2023/06/27 04:33:29;;;;;;;6.47;5.97;;;20.70;13.60;;;;;;5012499;28;20436;-76
2023/06/27 04:36:00;;;;;;;6.80;6.40;;;20.70;13.60;;;;;;5011685;28;20835;-76
2023/06/27 04:38:27;;;;;;;7.33;6.73;;;20.70;13.50;;;;;;5013208;28;20842;-76
2023/06/27 04:40:52;;;;;;;7.83;7.13;;;20.70;13.60;;;;;;5011639;28;20428;-76
2023/06/27 04:43:18;;;;;;;7.70;7.20;;;20.80;13.60;;;;;;5011963;28;20431;-76
2023/06/27 04:45:43;;;;;;;6.80;6.40;;;20.80;13.30;;;;;;5013338;28;20185;-76
2023/06/27 04:48:09;;;;;;;6.30;5.50;;;20.90;13.20;;;;;;5011483;28;20178;-76
2023/06/27 04:50:35;;;;;;;6.77;6.47;;;20.80;13.30;;;;;;5013002;28;20170;-77
2023/06/27 04:53:03;;;;;;;7.13;6.57;;;20.80;13.40;;;;;;5012278;28;20194;-77
2023/06/27 04:55:29;;;;;;;6.90;6.40;;;20.80;13.60;;;;;;5012513;28;20982;-76
2023/06/27 04:57:54;;;;;;;7.13;6.63;;;20.80;13.60;;;;;;5012677;28;20412;-75
2023/06/27 05:00:20;;;;;;;7.30;6.83;;;20.70;13.60;;;;;;5012989;28;20174;-77
2023/06/27 05:02:46;;;;;;;7.60;7.00;;;20.70;13.60;;;;;;5011754;28;20489;-80
2023/06/27 05:05:11;;;;;;;7.67;6.90;;;20.80;13.60;;;;;;5013773;28;20459;-76
2023/06/27 05:07:37;;;;;;;7.63;6.87;;;20.80;13.60;;;;;;5013137;28;20177;-76
2023/06/27 05:10:03;;;;;;;7.63;7.13;;;20.80;13.60;;;;;;5012828;28;20200;-76
2023/06/27 05:12:28;;;;;;;7.17;6.67;;;20.80;13.60;;;;;;5010837;28;20208;-75
2023/06/27 05:14:54;;;;;;;6.93;6.63;;;20.90;13.70;;;;;;5012032;28;20404;-77
2023/06/27 05:17:19;;;;;;;7.67;7.13;;;20.90;13.70;;;;;;5014259;28;20205;-77
2023/06/27 05:19:45;;;;;;;8.03;7.40;;;20.90;13.70;;;;;;5012025;28;20174;-77
2023/06/27 05:22:10;;;;;;;8.07;7.57;;;20.90;13.70;;;;;;5011680;28;20185;-76
2023/06/27 05:24:36;;;;;;;8.00;7.50;;;20.90;13.70;;;;;;5013401;28;20526;-76
2023/06/27 05:27:03;;;;;;;7.50;7.20;;;20.90;13.70;;;;;;5012560;28;20189;-75
2023/06/27 05:29:28;;;;;;;8.37;7.80;;;20.90;13.70;;;;;;5012996;28;20260;-76
2023/06/27 05:31:54;;;;;;;7.40;7.10;;;20.90;13.70;;;;;;5012025;28;20432;-76
2023/06/27 05:34:19;;;;;;;7.87;7.37;;;20.80;13.60;;;;;;5013757;28;20181;-75
2023/06/27 05:36:45;;;;;;;11.97;7.83;;;20.70;13.60;;;;;;5012155;28;20212;-74
2023/06/27 05:39:10;;;;;;;7.87;7.33;;;20.70;13.90;;;;;;5012081;28;20178;-75
2023/06/27 05:41:37;;;;;;;8.60;7.93;;;20.80;13.80;;;;;;5011557;28;20264;-74
2023/06/27 05:44:02;;;;;;;10.20;7.27;;;20.80;13.60;;;;;;5012664;28;20524;-74
2023/06/27 05:46:28;;;;;;;8.53;7.90;;;20.80;14.30;;;;;;5012226;28;20446;-75
2023/06/27 05:48:53;;;;;;;7.23;6.83;;;20.80;14.80;;;;;;5012029;28;20193;-74
2023/06/27 05:51:20;;;;;;;7.63;7.13;;;20.80;13.90;;;;;;5010127;28;20485;-74
2023/06/27 05:53:45;;;;;;;7.47;7.07;;;20.80;13.80;;;;;;5011983;28;20725;-74
2023/06/27 05:56:11;;;;;;;8.07;7.50;;;20.80;14.20;;;;;;5011906;28;20463;-74
2023/06/27 05:58:36;;;;;;;7.57;7.17;;;20.80;14.00;;;;;;5012177;28;20169;-74
2023/06/27 06:01:02;;;;;;;7.70;7.30;;;20.80;14.10;;;;;;5011533;28;20632;-79
2023/06/27 06:03:28;;;;;;;8.07;7.60;;;20.80;13.80;;;;;;5010324;28;20193;-77
2023/06/27 06:05:53;;;;;;;7.73;7.30;;;20.80;14.10;;;;;;5012025;28;20502;-75
2023/06/27 06:08:19;;;;;;;8.23;7.60;;;20.80;13.80;;;;;;5010578;28;20263;-75
2023/06/27 06:10:45;;;;;;;8.70;7.60;;;20.80;13.60;;;;;;5011776;28;20173;-75
2023/06/27 06:13:11;;;;;;;9.53;7.50;;;20.90;13.70;;;;;;5010307;28;20213;-75
2023/06/27 06:15:36;;;;;;;7.93;7.20;;;20.90;13.70;;;;;;5014173;28;20208;-76
2023/06/27 06:18:02;;;;;;;8.17;7.57;;;20.90;13.70;;;;;;5014889;28;20451;-75
2023/06/27 06:20:29;;;;;;;8.30;7.80;;;20.90;13.70;;;;;;5015167;28;20191;-74
2023/06/27 06:22:55;;;;;;;10.80;7.40;;;21.00;13.80;;;;;;5013749;28;20497;-76
2023/06/27 06:25:20;;;;;;;7.20;6.70;;;21.00;13.80;;;;;;5014746;28;20919;-73
2023/06/27 06:27:46;;;;;;;7.60;6.90;;;20.90;13.70;;;;;;5014725;28;20239;-74
2023/06/27 06:30:12;;;;;;;8.63;7.93;;;20.90;13.70;;;;;;5014670;28;20181;-74
2023/06/27 06:32:37;;;;;;;8.80;7.90;;;20.90;13.70;;;;;;5012528;28;20280;-74
2023/06/27 06:35:03;;;;;;;6.37;6.07;;;20.90;13.70;;;;;;5014407;28;20176;-75
2023/06/27 06:37:29;;;;;;;7.50;7.10;;;20.90;13.70;;;;;;5014342;28;20200;-75
2023/06/27 06:39:55;;;;;;;7.50;7.10;;;20.90;13.70;;;;;;5013608;28;20420;-74
2023/06/27 06:42:20;;;;;;;8.00;7.50;;;20.90;13.70;;;;;;5013729;28;20573;-73
2023/06/27 06:44:47;;;;;;;7.47;7.07;;;20.90;13.70;;;;;;5013846;28;20213;-74
2023/06/27 06:47:13;;;;;;;7.37;6.97;;;21.00;13.00;;;;;;5012534;28;20177;-74
2023/06/27 06:49:39;;;;;;;7.73;7.20;;;21.00;13.70;;;;;;5009291;28;20427;-74
2023/06/27 06:52:04;;;;;;;6.80;6.40;;;20.90;13.50;;;;;;5014047;28;20201;-74
2023/06/27 06:54:30;;;;;;;6.70;6.33;;;21.00;13.30;;;;;;5014348;28;20184;-74
2023/06/27 06:56:56;;;;;;;7.70;7.30;;;21.00;13.20;;;;;;5014522;28;20204;-77
2023/06/27 06:59:21;;;;;;;7.20;6.90;;;21.00;12.20;;;;;;5014709;28;20183;-74
2023/06/27 07:01:47;;;;;;;7.63;7.20;;;21.10;11.70;;;;;;5013763;28;20176;-75
2023/06/27 07:04:13;;;;;;;7.00;6.60;;;21.10;11.50;;;;;;5014315;28;20224;-74
2023/06/27 07:06:38;;;;;;;7.50;7.20;;;21.20;11.50;;;;;;5014367;28;20208;-75
2023/06/27 07:09:04;;;;;;;7.23;6.83;;;21.20;11.20;;;;;;5014294;28;20165;-74
2023/06/27 07:11:30;;;;;;;7.60;7.03;;;21.30;10.60;;;;;;5013639;28;20208;-74
2023/06/27 07:13:55;;;;;;;12.00;7.87;;;21.30;10.60;;;;;;5014244;28;20480;-74
2023/06/27 07:16:21;;;;;;;8.43;7.77;;;21.30;11.20;;;;;;5012110;28;20209;-75
2023/06/27 07:18:46;;;;;;;7.60;7.00;;;21.30;11.60;;;;;;5012783;28;20220;-75
2023/06/27 07:21:12;;;;;;;7.77;7.17;;;21.20;11.30;;;;;;5013582;28;20591;-74
2023/06/27 07:23:37;;;;;;;7.77;7.20;;;21.20;11.70;;;;;;5012749;28;20193;-74
2023/06/27 07:26:04;;;;;;;6.90;6.43;;;21.10;11.80;;;;;;5012887;28;20216;-75
2023/06/27 07:28:29;;;;;;;7.10;6.60;;;21.20;12.10;;;;;;5012224;28;20181;-75
2023/06/27 07:30:55;;;;;;;7.30;6.83;;;21.30;12.30;;;;;;5013073;28;20416;-77
2023/06/27 07:33:21;;;;;;;7.77;7.27;;;21.30;11.70;;;;;;5012739;28;20204;-76
2023/06/27 07:35:46;;;;;;;6.57;6.17;;;21.30;11.90;;;;;;5017195;28;20205;-80
2023/06/27 07:38:12;;;;;;;7.33;6.73;;;21.40;11.90;;;;;;5020316;28;20187;-76
2023/06/27 07:40:37;;;;;;;7.30;6.77;;;21.40;11.40;;;;;;5020930;28;20256;-78
2023/06/27 07:43:03;;;;;;;6.50;6.10;;;21.30;11.30;;;;;;5019268;28;20197;-80
2023/06/27 07:45:29;;;;;;;7.67;7.07;;;21.30;11.50;;;;;;5014201;28;20557;-78
2023/06/27 07:47:55;;;;;;;6.43;6.10;;;21.20;11.60;;;;;;5014940;28;20197;-78
2023/06/27 07:50:20;;;;;;;7.53;6.80;;;21.10;11.50;;;;;;5017790;28;20404;-78
2023/06/27 07:52:46;;;;;;;6.90;6.37;;;21.00;11.60;;;;;;5020948;28;20691;-78
2023/06/27 07:55:11;;;;;;;6.27;5.97;;;21.00;11.70;;;;;;5019582;28;20174;-78
2023/06/27 07:57:37;;;;;;;5.83;5.53;;;21.10;12.00;;;;;;5015002;28;20162;-77
2023/06/27 08:00:03;;;;;;;6.17;5.73;;;21.30;11.20;;;;;;5014185;28;20307;-77
2023/06/27 08:02:29;;;;;;;6.77;6.00;;;21.30;11.00;;;;;;5013840;28;20280;-79
2023/06/27 08:04:54;;;;;;;6.23;5.93;;;21.20;11.50;;;;;;5015283;28;20456;-78
2023/06/27 08:07:20;;;;;;;6.97;6.27;;;21.30;11.50;;;;;;5015266;28;20177;-78
2023/06/27 08:09:45;;;;;;;6.50;6.10;;;21.30;11.70;;;;;;5015438;28;20690;-78
2023/06/27 08:12:11;;;;;;;7.53;5.97;;;21.30;11.10;;;;;;5014614;28;20645;-78
2023/06/27 08:14:40;;;;;;;6.60;6.10;;;21.30;11.00;;;;;;5015752;28;20197;-78
2023/06/27 08:17:05;;;;;;;6.87;6.30;;;21.30;11.30;;;;;;5013835;28;20220;-78
2023/06/27 08:19:31;;;;;;;6.37;6.00;;;21.40;11.00;;;;;;5015220;28;20926;-79
2023/06/27 08:21:56;;;;;;;6.70;6.10;;;21.30;11.00;;;;;;5012863;28;20754;-78
2023/06/27 08:24:22;;;;;;;7.33;6.57;;;21.40;11.30;;;;;;5012663;28;20303;-77
2023/06/27 08:26:49;;;;;;;7.37;6.67;;;21.40;11.60;;;;;;5013488;28;20169;-77
2023/06/27 08:29:16;;;;;;;6.00;5.70;;;21.60;12.10;;;;;;5011858;28;20204;-77
2023/06/27 08:31:42;;;;;;;7.30;6.73;;;21.50;11.00;;;;;;5013393;28;20408;-77
2023/06/27 08:34:07;;;;;;;6.50;6.03;;;21.50;10.80;;;;;;5013813;28;20412;-77
2023/06/27 08:36:33;;;;;;;6.40;6.00;;;21.50;10.80;;;;;;5011907;28;20472;-77
2023/06/27 08:38:59;;;;;;;6.80;6.40;;;21.50;10.70;;;;;;5012984;28;20177;-77
2023/06/27 08:41:24;;;;;;;7.50;6.17;;;21.50;11.00;;;;;;5013075;28;20192;-77
2023/06/27 08:43:50;;;;;;;6.67;6.13;;;21.60;11.10;;;;;;5012737;28;20212;-77
2023/06/27 08:46:19;;;;;;;7.03;6.53;;;21.70;11.00;;;;;;5013591;28;20187;-77
2023/06/27 08:48:45;;;;;;;6.67;6.27;;;21.80;10.80;;;;;;5015480;28;20181;-78
2023/06/27 08:51:14;;;;;;;7.00;6.30;;;21.90;10.50;;;;;;5015259;28;20953;-78
2023/06/27 08:53:43;;;;;;;7.20;6.50;;;21.90;10.30;;;;;;5015585;28;20443;-78
2023/06/27 08:56:15;;;;;;;6.93;6.40;;;22.00;10.60;;;;;;5014989;28;20518;-78
2023/06/27 08:58:50;;;;;;;7.10;6.73;;;22.00;11.00;;;;;;5016819;28;20476;-78
2023/06/27 09:01:16;;;;;;;6.80;6.20;;;22.00;10.40;;;;;;5015588;28;20756;-77
2023/06/27 09:03:42;;;;;;;7.17;6.63;;;22.00;10.20;;;;;;5015005;28;20445;-77
2023/06/27 09:06:08;;;;;;;6.53;5.90;;;22.00;10.20;;;;;;5016462;28;20416;-78
2023/06/27 09:08:34;;;;;;;6.60;6.20;;;21.90;10.40;;;;;;5014544;28;20597;-77
2023/06/27 09:11:00;;;;;;;11.40;6.60;;;21.80;10.20;;;;;;5014961;28;20894;-77
2023/06/27 09:13:27;;;;;;;7.00;6.50;;;21.70;10.40;;;;;;5014524;28;20451;-77
2023/06/27 09:15:53;;;;;;;7.33;6.73;;;21.80;10.60;;;;;;5013613;28;20468;-78
2023/06/27 09:18:19;;;;;;;6.23;5.93;;;21.90;10.50;;;;;;5015655;28;20458;-78
2023/06/27 09:20:45;;;;;;;6.30;5.90;;;22.00;10.40;;;;;;5015783;28;20408;-78
2023/06/27 09:23:11;;;;;;;6.30;6.00;;;22.10;10.10;;;;;;5018217;28;20432;-79
2023/06/27 09:25:37;;;;;;;6.60;6.30;;;22.20;10.20;;;;;;5019787;28;20428;-79
2023/06/27 09:28:18;;;;;;;6.50;5.90;;;22.30;10.20;;;;;;5020109;28;20826;-79
2023/06/27 09:30:57;;;;;;;7.00;6.50;;;22.30;9.80;;;;;;5019948;28;20240;-79
2023/06/27 09:33:23;;;;;;;8.00;6.50;;;22.30;9.70;;;;;;5019930;28;20431;-78
2023/06/27 09:35:50;;;;;;;7.07;6.30;;;22.20;9.60;;;;;;5018355;28;20468;-78
2023/06/27 09:38:18;;;;;;;7.43;6.27;;;22.10;9.90;;;;;;5019099;28;20431;-80
2023/06/27 09:40:44;;;;;;;6.20;5.80;;;22.00;10.00;;;;;;5020356;28;20475;-79
2023/06/27 09:43:11;;;;;;;6.40;6.00;;;22.10;10.70;;;;;;5020482;28;20471;-79
2023/06/27 09:45:38;;;;;;;6.43;6.03;;;22.20;10.50;;;;;;5013902;28;20197;-79
2023/06/27 09:48:08;;;;;;;6.80;6.30;;;22.20;10.30;;;;;;4999765;28;20417;-79
2023/06/27 09:50:34;;;;;;;7.57;7.07;;;22.20;10.30;;;;;;5019550;28;20413;-79
2023/06/27 09:53:00;;;;;;;6.70;6.30;;;22.30;9.90;;;;;;5002982;28;20476;-77
2023/06/27 09:55:27;;;;;;;6.93;5.90;;;22.10;9.50;;;;;;5003777;28;20563;-80
2023/06/27 09:57:53;;;;;;;7.17;6.57;;;22.30;10.20;;;;;;5021075;28;20417;-80
2023/06/27 10:00:22;;;;;;;6.73;6.43;;;22.30;9.20;;;;;;5004975;28;20527;-79
2023/06/27 10:02:49;;;;;;;6.70;6.10;;;22.40;9.40;;;;;;5021261;28;20444;-80
2023/06/27 10:05:19;;;;;;;7.23;6.47;;;22.40;9.40;;;;;;5018798;28;20483;-75
2023/06/27 10:07:47;;;;;;;6.27;6.00;;;22.50;9.20;;;;;;4999130;28;20450;-76
2023/06/27 10:10:13;;;;;;;6.50;6.10;;;22.50;9.00;;;;;;4999576;28;20467;-76
2023/06/27 10:12:39;;;;;;;5.73;5.47;;;22.50;9.30;;;;;;4999685;28;20955;-76
2023/06/27 10:15:07;;;;;;;5.80;5.40;;;22.60;9.10;;;;;;4998594;28;20504;-76
2023/06/27 10:17:33;;;;;;;10.43;9.83;;;22.60;8.00;;;;;;4997098;28;20464;-76
2023/06/27 10:19:59;;;;;;;7.00;6.40;;;22.50;8.20;;;;;;4996640;28;20503;-76
2023/06/27 10:22:29;;;;;;;7.73;7.03;;;22.40;8.60;;;;;;4995487;28;20439;-77
2023/06/27 10:25:01;;;;;;;6.30;6.00;;;22.50;8.40;;;;;;4995569;28;20413;-78
2023/06/27 10:27:26;;;;;;;6.20;5.80;;;22.60;8.20;;;;;;5010771;28;20417;-77
2023/06/27 10:29:52;;;;;;;6.73;6.00;;;22.70;9.10;;;;;;4995650;28;20428;-78
2023/06/27 10:32:19;;;;;;;6.67;6.17;;;22.80;8.40;;;;;;4994100;28;20205;-77
2023/06/27 10:34:45;;;;;;;6.63;6.30;;;22.80;8.00;;;;;;4995552;28;20182;-78
2023/06/27 10:37:11;;;;;;;6.70;6.40;;;22.80;7.90;;;;;;4995641;28;20464;-78
2023/06/27 10:39:39;;;;;;;7.53;6.30;;;22.70;7.90;;;;;;4995621;28;20409;-78
2023/06/27 10:42:05;;;;;;;6.43;6.13;;;22.80;8.20;;;;;;4995165;28;20437;-77
2023/06/27 10:44:34;;;;;;;7.47;6.80;;;22.70;8.30;;;;;;4995067;28;20521;-77
2023/06/27 10:47:15;;;;;;;7.80;7.13;;;22.70;8.00;;;;;;4995302;28;20526;-77
2023/06/27 10:49:40;;;;;;;7.67;6.80;;;22.70;8.20;;;;;;4995450;28;20415;-77
2023/06/27 10:52:10;;;;;;;7.10;6.43;;;22.80;8.10;;;;;;4994530;28;20437;-77
2023/06/27 10:54:41;;;;;;;6.20;5.90;;;22.90;7.90;;;;;;4995307;28;20201;-78
2023/06/27 10:57:06;;;;;;;6.60;6.20;;;22.90;7.80;;;;;;4995189;28;20967;-77
2023/06/27 10:59:34;;;;;;;7.50;7.10;;;22.90;7.60;;;;;;5009677;28;20453;-78
2023/06/27 11:02:01;;;;;;;6.33;5.80;;;22.90;7.50;;;;;;4994647;28;20197;-77
2023/06/27 11:04:41;;;;;;;6.67;6.33;;;22.90;7.50;;;;;;4995086;28;20418;-77
2023/06/27 11:07:08;;;;;;;6.60;6.30;;;22.80;7.60;;;;;;5010141;28;20982;-78
2023/06/27 11:09:36;;;;;;;7.13;6.73;;;22.70;7.90;;;;;;4994850;28;20479;-77
2023/06/27 11:12:17;;;;;;;6.93;6.53;;;22.80;8.00;;;;;;4994406;28;20449;-77
2023/06/27 11:14:48;;;;;;;7.03;6.53;;;22.80;7.70;;;;;;5008377;28;20426;-77
2023/06/27 11:17:14;;;;;;;6.57;6.23;;;22.80;7.50;;;;;;5012765;28;20463;-77
2023/06/27 11:19:42;;;;;;;7.13;6.80;;;22.80;7.70;;;;;;5014848;28;20479;-78
2023/06/27 11:22:08;;;;;;;7.70;7.20;;;22.70;8.00;;;;;;5014459;28;20438;-78
2023/06/27 11:24:33;;;;;;;6.60;6.20;;;22.80;8.20;;;;;;5015389;28;20849;-78
2023/06/27 11:27:00;;;;;;;6.60;6.30;;;22.80;7.70;;;;;;5014701;28;20243;-78
2023/06/27 11:29:27;;;;;;;7.00;6.50;;;22.80;7.90;;;;;;5014392;28;20682;-77
2023/06/27 11:31:54;;;;;;;6.13;5.83;;;22.80;7.50;;;;;;5012472;28;20527;-77
2023/06/27 11:34:20;;;;;;;7.17;6.80;;;22.80;7.50;;;;;;5012948;28;20474;-77
2023/06/27 11:36:46;;;;;;;6.83;6.20;;;22.80;7.80;;;;;;5014328;28;20464;-77
2023/06/27 11:39:12;;;;;;;7.03;6.63;;;22.80;7.70;;;;;;5013743;28;20200;-76
2023/06/27 11:41:39;;;;;;;8.80;8.30;;;22.80;7.60;;;;;;5012002;28;20598;-76
2023/06/27 11:44:10;;;;;;;6.73;6.30;;;22.90;7.60;;;;;;5013275;28;20415;-76
2023/06/27 11:46:47;;;;;;;7.30;6.80;;;22.80;7.50;;;;;;5013933;28;20428;-75
2023/06/27 11:49:12;;;;;;;6.83;6.43;;;22.90;7.50;;;;;;5013638;28;20937;-75
2023/06/27 11:51:39;;;;;;;6.13;5.83;;;22.90;7.40;;;;;;5013031;28;20424;-76
2023/06/27 11:54:07;;;;;;;6.80;6.50;;;23.00;7.30;;;;;;5013974;28;20180;-75
2023/06/27 11:56:33;;;;;;;7.03;6.60;;;23.00;7.50;;;;;;5016347;28;21031;-77
2023/06/27 11:58:59;;;;;;;6.80;6.50;;;23.10;7.10;;;;;;5016936;28;20416;-77
2023/06/27 12:01:27;;;;;;;6.10;5.70;;;23.10;7.10;;;;;;5013001;28;20439;-74
2023/06/27 12:03:53;;;;;;;6.50;6.10;;;23.10;6.70;;;;;;5013224;28;20511;-74
2023/06/27 12:06:29;;;;;;;7.33;6.70;;;23.10;6.60;;;;;;5013294;28;20511;-74
2023/06/27 12:08:56;;;;;;;8.77;6.40;;;23.00;6.80;;;;;;5013196;28;20197;-74
2023/06/27 12:11:36;;;;;;;8.00;6.43;;;23.00;7.10;;;;;;5012008;28;20417;-74
2023/06/27 12:14:02;;;;;;;6.70;6.17;;;23.00;7.30;;;;;;5012010;28;20469;-75
2023/06/27 12:16:35;;;;;;;6.57;6.00;;;23.10;7.50;;;;;;5013146;28;20491;-76
2023/06/27 12:19:05;;;;;;;6.10;5.90;;;23.00;6.80;;;;;;5011834;28;20424;-75
2023/06/27 12:21:31;;;;;;;7.03;6.63;;;23.10;7.00;;;;;;5012838;28;20423;-75
2023/06/27 12:23:57;;;;;;;6.63;6.23;;;23.10;8.30;;;;;;5013121;28;20417;-75
2023/06/27 12:26:23;;;;;;;6.70;6.33;;;23.10;7.20;;;;;;5012940;28;20419;-75
2023/06/27 12:28:55;;;;;;;7.33;6.77;;;23.10;7.20;;;;;;5012774;28;20177;-75
2023/06/27 12:31:21;;;;;;;6.93;6.23;;;23.30;7.00;;;;;;5012365;28;20580;-74
2023/06/27 12:33:46;;;;;;;6.97;6.07;;;23.30;6.40;;;;;;5012987;28;20475;-75
2023/06/27 12:36:14;;;;;;;6.47;6.07;;;23.30;6.40;;;;;;5011682;28;20686;-74
2023/06/27 12:38:40;;;;;;;6.37;5.97;;;23.30;6.80;;;;;;5012825;28;20173;-74
2023/06/27 12:41:05;;;;;;;6.97;6.37;;;23.30;6.80;;;;;;5012468;28;20469;-74
2023/06/27 12:43:31;;;;;;;6.27;5.83;;;23.40;6.70;;;;;;5012147;28;20957;-74
2023/06/27 12:46:04;;;;;;;6.90;6.47;;;23.50;6.80;;;;;;5011653;28;20259;-75